Time;durP1;ratioP1;P1;durP2;ratioP2;P2;SDS_P1;SDS_P2;PMS_P1;PMS_P2;Temp;Humidity;BMP_temperature;BMP_pressure;BME280_temperature;BME280_humidity;BME280_pressure;Samples;Min_cycle;Max_cycle;Signal;HPM_P1;HPM_P2
2021/01/24 06:01:40;;;;;;;1.08;0.20;;;;;;;;;;5067940;28;20353;-54
2021/01/24 06:04:06;;;;;;;0.10;0.10;;;;;;;;;;5068251;28;20024;-56
2021/01/24 06:06:32;;;;;;;0.30;0.30;;;;;;;;;;5064207;28;20037;-56
2021/01/24 06:08:58;;;;;;;0.30;0.20;;;;;;;;;;5064414;28;20036;-55
2021/01/24 06:11:24;;;;;;;0.32;0.30;;;;;;;;;;5064203;28;20044;-56
2021/01/24 06:13:54;;;;;;;0.10;0.10;;;;;;;;;;5064384;28;20025;-57
2021/01/24 06:16:27;;;;;;;0.10;0.10;;;;;;;;;;5066789;28;20116;-56
2021/01/24 06:18:59;;;;;;;0.43;0.35;;;;;;;;;;5066344;28;20017;-57
2021/01/24 06:21:28;;;;;;;0.10;0.10;;;;;;;;;;5063914;28;20116;-57
2021/01/24 06:23:57;;;;;;;0.10;0.10;;;;;;;;;;5064145;28;20389;-56
2021/01/24 06:26:24;;;;;;;0.20;0.20;;;;;;;;;;5064709;28;20072;-56
2021/01/24 06:28:52;;;;;;;0.17;0.17;;;;;;;;;;5064103;28;20021;-56
2021/01/24 06:31:19;;;;;;;0.13;0.13;;;;;;;;;;5066582;28;20048;-56
2021/01/24 06:33:45;;;;;;;0.10;0.10;;;;;;;;;;5065644;28;20035;-54
2021/01/24 06:36:12;;;;;;;0.20;0.20;;;;;;;;;;5097440;28;20047;-56
2021/01/24 06:38:39;;;;;;;0.20;0.20;;;;;;;;;;5075498;28;20082;-56
2021/01/24 06:41:07;;;;;;;0.20;0.15;;;;;;;;;;5070897;28;20036;-55
2021/01/24 06:43:40;;;;;;;0.15;0.13;;;;;;;;;;5074957;28;20029;-56
2021/01/24 06:46:07;;;;;;;0.20;0.20;;;;;;;;;;5067115;28;20037;-55
2021/01/24 06:48:44;;;;;;;4.45;0.35;;;;;;;;;;5065545;28;20032;-56
2021/01/24 06:51:29;;;;;;;3.13;0.30;;;;;;;;;;5065265;28;20040;-56
2021/01/24 06:53:55;;;;;;;0.20;0.20;;;;;;;;;;5063221;28;20024;-52
2021/01/24 06:56:21;;;;;;;0.10;0.10;;;;;;;;;;5063440;28;20049;-52
2021/01/24 06:58:48;;;;;;;0.47;0.40;;;;;;;;;;5063216;28;20031;-57
2021/01/24 07:01:31;;;;;;;0.10;0.10;;;;;;;;;;5060880;28;20128;-58
2021/01/24 07:04:16;;;;;;;1.63;0.28;;;;;;;;;;5052348;28;20079;-55
2021/01/24 07:06:42;;;;;;;3.53;0.85;;;;;;;;;;5051592;28;20029;-56
2021/01/24 07:11:53;;;;;;;0.20;0.20;;;;;;;;;;5049253;28;20112;-56
2021/01/24 07:14:37;;;;;;;0.20;0.20;;;;;;;;;;5049835;28;20032;-55
2021/01/24 07:17:04;;;;;;;0.20;0.20;;;;;;;;;;5049058;28;20490;-58
2021/01/24 07:19:31;;;;;;;0.20;0.20;;;;;;;;;;5051710;28;20025;-57
2021/01/24 07:21:57;;;;;;;0.10;0.10;;;;;;;;;;5052271;28;20143;-56
2021/01/24 07:24:23;;;;;;;0.20;0.20;;;;;;;;;;5050098;28;20079;-57
2021/01/24 07:26:49;;;;;;;1.25;0.43;;;;;;;;;;5050172;28;20086;-53
2021/01/24 07:29:17;;;;;;;0.10;0.10;;;;;;;;;;5050040;28;20029;-57
2021/01/24 07:31:44;;;;;;;0.10;0.10;;;;;;;;;;5049874;28;20032;-58
2021/01/24 07:34:10;;;;;;;1.30;0.20;;;;;;;;;;5053407;28;20048;-57
2021/01/24 07:36:36;;;;;;;0.10;0.10;;;;;;;;;;5049861;28;20047;-57
2021/01/24 07:39:03;;;;;;;0.10;0.10;;;;;;;;;;5049646;28;20028;-56
2021/01/24 07:41:32;;;;;;;0.20;0.20;;;;;;;;;;5049456;28;20032;-57
2021/01/24 07:43:59;;;;;;;0.10;0.10;;;;;;;;;;5049769;28;20104;-57
2021/01/24 07:46:25;;;;;;;0.10;0.10;;;;;;;;;;5052164;28;20409;-53
2021/01/24 07:48:51;;;;;;;0.47;0.20;;;;;;;;;;5050483;28;20037;-52
2021/01/24 07:51:17;;;;;;;0.30;0.30;;;;;;;;;;5049429;28;20037;-53
2021/01/24 07:53:44;;;;;;;0.28;0.20;;;;;;;;;;5049621;28;20079;-53
2021/01/24 07:56:10;;;;;;;0.10;0.10;;;;;;;;;;5049553;28;20174;-55
2021/01/24 07:58:36;;;;;;;0.20;0.20;;;;;;;;;;5048826;28;20029;-54
2021/01/24 08:01:06;;;;;;;0.10;0.10;;;;;;;;;;5052881;28;20525;-53
2021/01/24 08:03:34;;;;;;;0.20;0.20;;;;;;;;;;5048852;28;20104;-54
2021/01/24 08:06:10;;;;;;;0.40;0.28;;;;;;;;;;5048919;28;20025;-52
2021/01/24 08:08:37;;;;;;;0.10;0.10;;;;;;;;;;5044869;28;20056;-54
2021/01/24 08:11:03;;;;;;;0.45;0.45;;;;;;;;;;5048538;28;20033;-52
2021/01/24 08:13:29;;;;;;;0.10;0.10;;;;;;;;;;5049894;28;20070;-53
2021/01/24 08:15:56;;;;;;;0.10;0.10;;;;;;;;;;5051106;28;20033;-54
2021/01/24 08:18:23;;;;;;;0.10;0.10;;;;;;;;;;5049399;28;20062;-54
2021/01/24 08:20:49;;;;;;;0.10;0.10;;;;;;;;;;5049741;28;20036;-54
2021/01/24 08:23:16;;;;;;;0.20;0.20;;;;;;;;;;5049156;28;20039;-57
2021/01/24 08:25:43;;;;;;;9.85;0.47;;;;;;;;;;5049966;28;20164;-52
2021/01/24 08:28:09;;;;;;;0.20;0.20;;;;;;;;;;5051830;28;20039;-56
2021/01/24 08:30:38;;;;;;;0.10;0.10;;;;;;;;;;5049404;28;20067;-52
2021/01/24 08:33:05;;;;;;;0.35;0.17;;;;;;;;;;5048620;28;20021;-53
2021/01/24 08:35:34;;;;;;;0.15;0.15;;;;;;;;;;5048643;28;20064;-51
2021/01/24 08:38:03;;;;;;;0.10;0.10;;;;;;;;;;5048813;28;20368;-54
2021/01/24 08:40:33;;;;;;;0.20;0.20;;;;;;;;;;5048365;28;20017;-53
2021/01/24 08:43:00;;;;;;;0.10;0.10;;;;;;;;;;5050751;28;20107;-56
2021/01/24 08:45:28;;;;;;;0.17;0.15;;;;;;;;;;5049792;28;20394;-53
2021/01/24 08:47:55;;;;;;;0.52;0.30;;;;;;;;;;5048314;28;20021;-51
2021/01/24 08:50:21;;;;;;;3.92;0.63;;;;;;;;;;5048480;28;20414;-53
2021/01/24 08:53:00;;;;;;;0.57;0.38;;;;;;;;;;5048215;28;20102;-52
2021/01/24 08:55:26;;;;;;;0.10;0.10;;;;;;;;;;5050473;28;20036;-56
2021/01/24 08:57:52;;;;;;;0.17;0.17;;;;;;;;;;5049508;28;20041;-56
2021/01/24 09:00:19;;;;;;;2.53;0.68;;;;;;;;;;5047114;28;20142;-52
2021/01/24 09:02:46;;;;;;;1.73;0.63;;;;;;;;;;5048200;28;20025;-53
2021/01/24 09:05:16;;;;;;;0.15;0.15;;;;;;;;;;5048169;28;20031;-54
2021/01/24 09:07:43;;;;;;;0.10;0.10;;;;;;;;;;5032372;28;20079;-55
2021/01/24 09:10:13;;;;;;;0.20;0.20;;;;;;;;;;5051312;28;20120;-55
2021/01/24 09:12:39;;;;;;;0.22;0.22;;;;;;;;;;5047821;28;20395;-55
2021/01/24 09:15:06;;;;;;;3.20;0.65;;;;;;;;;;5049494;28;20439;-52
2021/01/24 09:17:32;;;;;;;0.10;0.10;;;;;;;;;;5049455;28;20039;-55
2021/01/24 09:19:58;;;;;;;2.00;0.30;;;;;;;;;;5050069;28;20118;-54
2021/01/24 09:22:24;;;;;;;1.35;1.17;;;;;;;;;;5049582;28;20029;-55
2021/01/24 09:24:50;;;;;;;0.10;0.10;;;;;;;;;;5050393;28;20488;-56
2021/01/24 09:27:16;;;;;;;1.30;0.20;;;;;;;;;;5048828;28;20028;-56
2021/01/24 09:29:42;;;;;;;0.20;0.20;;;;;;;;;;5048568;28;20159;-55
2021/01/24 09:32:09;;;;;;;0.93;0.55;;;;;;;;;;5049010;28;20025;-52
2021/01/24 09:34:36;;;;;;;0.10;0.10;;;;;;;;;;5048739;28;20386;-54
2021/01/24 09:37:02;;;;;;;0.20;0.20;;;;;;;;;;5050043;28;20037;-51
2021/01/24 09:39:28;;;;;;;0.95;0.35;;;;;;;;;;5048464;28;20025;-53
2021/01/24 09:41:55;;;;;;;0.20;0.20;;;;;;;;;;5046763;28;20029;-57
2021/01/24 09:44:21;;;;;;;0.38;0.30;;;;;;;;;;5046710;28;20516;-56
2021/01/24 09:46:47;;;;;;;0.10;0.10;;;;;;;;;;5048920;28;20033;-55
2021/01/24 09:49:13;;;;;;;0.47;0.38;;;;;;;;;;5049690;28;20029;-58
2021/01/24 09:51:40;;;;;;;6.90;0.85;;;;;;;;;;5046257;28;20453;-52
2021/01/24 09:54:06;;;;;;;0.20;0.17;;;;;;;;;;5048632;28;20508;-54
2021/01/24 09:56:32;;;;;;;3.10;0.50;;;;;;;;;;5046798;28;20036;-54
2021/01/24 09:58:59;;;;;;;1.38;1.05;;;;;;;;;;5046353;28;20041;-54
2021/01/24 10:01:25;;;;;;;2.05;1.00;;;;;;;;;;5048495;28;20068;-56
2021/01/24 10:03:52;;;;;;;0.20;0.20;;;;;;;;;;5047728;28;20037;-57
2021/01/24 10:06:19;;;;;;;8.65;1.30;;;;;;;;;;5046791;28;20494;-53
2021/01/24 10:08:45;;;;;;;3.17;0.82;;;;;;;;;;5044845;28;20460;-51
2021/01/24 10:11:12;;;;;;;2.10;0.55;;;;;;;;;;5044263;28;20083;-52
2021/01/24 10:13:38;;;;;;;0.30;0.30;;;;;;;;;;5045325;28;20030;-55
2021/01/24 10:16:04;;;;;;;0.55;0.50;;;;;;;;;;5047872;28;20451;-56
2021/01/24 10:18:30;;;;;;;0.22;0.22;;;;;;;;;;5046417;28;20031;-57
2021/01/24 10:20:56;;;;;;;0.40;0.40;;;;;;;;;;5047720;28;20033;-56
2021/01/24 10:23:23;;;;;;;0.20;0.20;;;;;;;;;;5046463;28;20033;-52
2021/01/24 10:25:50;;;;;;;0.20;0.20;;;;;;;;;;5047720;28;20079;-54
2021/01/24 10:28:17;;;;;;;0.20;0.20;;;;;;;;;;5049032;28;20013;-56
2021/01/24 10:30:44;;;;;;;0.20;0.20;;;;;;;;;;5048640;28;20052;-56
2021/01/24 10:33:10;;;;;;;1.20;0.30;;;;;;;;;;5046583;28;20067;-57
2021/01/24 10:35:37;;;;;;;0.82;0.73;;;;;;;;;;5046558;28;20108;-57
2021/01/24 10:38:03;;;;;;;0.30;0.30;;;;;;;;;;5050000;28;20402;-54
2021/01/24 10:40:29;;;;;;;0.13;0.13;;;;;;;;;;5051897;28;20048;-55
2021/01/24 10:42:56;;;;;;;2.35;0.63;;;;;;;;;;5051773;28;20372;-55
2021/01/24 10:45:23;;;;;;;0.30;0.25;;;;;;;;;;5049989;28;20107;-53
2021/01/24 10:47:50;;;;;;;0.10;0.10;;;;;;;;;;5049893;28;20040;-52
2021/01/24 10:50:16;;;;;;;0.35;0.32;;;;;;;;;;5050150;28;20222;-57
2021/01/24 10:52:42;;;;;;;0.20;0.20;;;;;;;;;;5050364;28;20049;-56
2021/01/24 10:55:08;;;;;;;0.20;0.20;;;;;;;;;;5053829;28;20031;-55
2021/01/24 10:57:35;;;;;;;0.20;0.20;;;;;;;;;;5049433;28;20029;-54
2021/01/24 11:00:01;;;;;;;0.50;0.50;;;;;;;;;;5049199;28;20094;-56
2021/01/24 11:02:28;;;;;;;0.20;0.20;;;;;;;;;;5049796;28;20733;-57
2021/01/24 11:04:54;;;;;;;0.20;0.20;;;;;;;;;;5049855;28;20029;-54
2021/01/24 11:07:20;;;;;;;0.20;0.20;;;;;;;;;;5052182;28;20040;-57
2021/01/24 11:09:46;;;;;;;0.28;0.20;;;;;;;;;;5050822;28;20040;-57
2021/01/24 11:12:12;;;;;;;0.10;0.10;;;;;;;;;;5049529;28;20446;-56
2021/01/24 11:14:39;;;;;;;0.10;0.10;;;;;;;;;;5049778;28;20112;-55
2021/01/24 11:17:05;;;;;;;0.20;0.20;;;;;;;;;;5049544;28;20023;-54
2021/01/24 11:19:31;;;;;;;0.20;0.20;;;;;;;;;;5051332;28;20108;-53
2021/01/24 11:21:57;;;;;;;3.92;0.30;;;;;;;;;;5051795;28;20032;-53
2021/01/24 11:24:23;;;;;;;0.10;0.10;;;;;;;;;;5049357;28;20410;-51
2021/01/24 11:26:50;;;;;;;1.73;0.73;;;;;;;;;;5048896;28;20032;-51
2021/01/24 11:29:16;;;;;;;0.20;0.20;;;;;;;;;;5047604;28;20098;-55
2021/01/24 11:31:42;;;;;;;0.93;0.47;;;;;;;;;;5049094;28;20078;-52
2021/01/24 11:34:08;;;;;;;0.38;0.32;;;;;;;;;;5052941;28;20021;-56
2021/01/24 11:36:34;;;;;;;0.32;0.22;;;;;;;;;;5051559;28;20067;-53
2021/01/24 11:39:00;;;;;;;4.07;1.13;;;;;;;;;;5051715;28;20091;-54
2021/01/24 11:41:27;;;;;;;0.10;0.10;;;;;;;;;;5049069;28;20510;-52
2021/01/24 11:43:53;;;;;;;0.17;0.17;;;;;;;;;;5048757;28;20387;-53
2021/01/24 11:46:19;;;;;;;0.17;0.17;;;;;;;;;;5051334;28;20097;-55
2021/01/24 11:48:45;;;;;;;0.85;0.30;;;;;;;;;;5050064;28;20428;-55
2021/01/24 11:51:11;;;;;;;0.25;0.25;;;;;;;;;;5048582;28;20033;-54
2021/01/24 11:53:37;;;;;;;0.50;0.50;;;;;;;;;;5049895;28;20108;-55
2021/01/24 11:56:06;;;;;;;0.25;0.20;;;;;;;;;;5050593;28;20032;-55
2021/01/24 11:58:33;;;;;;;5.13;0.70;;;;;;;;;;5050634;28;20037;-53
2021/01/24 12:00:59;;;;;;;0.20;0.20;;;;;;;;;;5051577;28;20052;-54
2021/01/24 12:03:25;;;;;;;0.43;0.30;;;;;;;;;;5048721;28;20120;-54
2021/01/24 12:05:51;;;;;;;0.20;0.20;;;;;;;;;;5048640;28;20489;-54
2021/01/24 12:08:17;;;;;;;0.47;0.38;;;;;;;;;;5048614;28;20036;-54
2021/01/24 12:10:43;;;;;;;0.73;0.40;;;;;;;;;;5048805;28;20028;-57
2021/01/24 12:13:10;;;;;;;0.10;0.10;;;;;;;;;;5050808;28;20033;-52
2021/01/24 12:15:36;;;;;;;9.30;1.35;;;;;;;;;;5048796;28;20566;-55
2021/01/24 12:18:02;;;;;;;0.75;0.30;;;;;;;;;;5076399;28;20426;-52
2021/01/24 12:20:28;;;;;;;1.27;0.68;;;;;;;;;;5046665;28;20551;-54
2021/01/24 12:22:54;;;;;;;1.92;0.90;;;;;;;;;;5048260;28;20619;-55
2021/01/24 12:25:20;;;;;;;0.40;0.40;;;;;;;;;;5045361;28;20124;-55
2021/01/24 12:27:46;;;;;;;4.80;1.30;;;;;;;;;;5042249;28;20029;-53
2021/01/24 12:30:13;;;;;;;1.08;0.45;;;;;;;;;;5043821;28;20040;-57
2021/01/24 12:32:39;;;;;;;0.25;0.25;;;;;;;;;;5043554;28;20102;-57
2021/01/24 12:35:06;;;;;;;9.70;2.17;;;;;;;;;;5046623;28;20460;-55
2021/01/24 12:37:32;;;;;;;6.18;1.15;;;;;;;;;;5041708;28;20132;-56
2021/01/24 12:39:58;;;;;;;8.93;1.25;;;;;;;;;;5040863;28;20033;-56
2021/01/24 12:42:24;;;;;;;6.55;0.75;;;;;;;;;;5044504;28;20444;-55
2021/01/24 12:44:50;;;;;;;0.88;0.85;;;;;;;;;;5038573;28;20025;-55
2021/01/24 12:47:17;;;;;;;0.13;0.13;;;;;;;;;;5047081;28;20501;-56
2021/01/24 12:49:43;;;;;;;1.10;0.52;;;;;;;;;;5042646;28;20471;-56
2021/01/24 12:52:09;;;;;;;9.50;1.20;;;;;;;;;;5044949;28;20051;-63
2021/01/24 12:54:35;;;;;;;0.90;0.60;;;;;;;;;;5043439;28;20022;-63
2021/01/24 12:57:01;;;;;;;0.40;0.40;;;;;;;;;;5031341;28;20025;-65
2021/01/24 12:59:27;;;;;;;1.13;0.55;;;;;;;;;;5032986;28;20037;-64
2021/01/24 13:01:54;;;;;;;2.25;0.73;;;;;;;;;;5038272;28;20086;-60
2021/01/24 13:04:21;;;;;;;0.17;0.10;;;;;;;;;;5031051;28;20087;-66
2021/01/24 13:06:47;;;;;;;3.30;0.40;;;;;;;;;;5033202;28;20129;-63
2021/01/24 13:09:13;;;;;;;0.77;0.60;;;;;;;;;;5035850;28;20029;-70
2021/01/24 13:11:40;;;;;;;0.20;0.20;;;;;;;;;;5035631;28;20383;-63
2021/01/24 13:14:07;;;;;;;12.20;0.88;;;;;;;;;;5034035;28;20025;-69
2021/01/24 13:16:34;;;;;;;0.10;0.10;;;;;;;;;;5033082;28;20467;-60
2021/01/24 13:19:00;;;;;;;0.15;0.15;;;;;;;;;;5032384;28;20037;-68
2021/01/24 13:21:26;;;;;;;2.58;2.38;;;;;;;;;;5042468;28;20055;-65
2021/01/24 13:23:53;;;;;;;3.53;0.32;;;;;;;;;;5047329;28;20541;-60
2021/01/24 13:26:19;;;;;;;1.88;0.73;;;;;;;;;;5046395;28;20044;-66
2021/01/24 13:28:46;;;;;;;0.28;0.20;;;;;;;;;;5049153;28;20093;-68
2021/01/24 13:31:12;;;;;;;0.55;0.55;;;;;;;;;;5051394;28;20417;-64
2021/01/24 13:33:38;;;;;;;0.85;0.20;;;;;;;;;;5039697;28;20116;-60
2021/01/24 13:36:04;;;;;;;2.47;0.82;;;;;;;;;;5047535;28;20441;-56
2021/01/24 13:38:30;;;;;;;11.73;0.70;;;;;;;;;;5049377;28;20029;-53
2021/01/24 13:40:56;;;;;;;18.52;1.13;;;;;;;;;;5047066;28;20117;-52
2021/01/24 13:43:22;;;;;;;1.20;0.20;;;;;;;;;;5058417;28;20036;-53
2021/01/24 13:45:48;;;;;;;0.55;0.25;;;;;;;;;;5048251;28;20037;-57
2021/01/24 13:48:14;;;;;;;1.35;0.45;;;;;;;;;;5046822;28;20064;-56
2021/01/24 13:50:41;;;;;;;12.43;0.30;;;;;;;;;;5048696;28;20028;-54
2021/01/24 13:53:07;;;;;;;2.10;0.82;;;;;;;;;;5047970;28;20493;-56
2021/01/24 13:55:33;;;;;;;4.68;0.47;;;;;;;;;;5049134;28;20422;-55
2021/01/24 13:57:59;;;;;;;0.52;0.45;;;;;;;;;;5048607;28;20028;-56
2021/01/24 14:00:25;;;;;;;6.60;0.63;;;;;;;;;;5048407;28;20053;-56
2021/01/24 14:02:51;;;;;;;6.05;1.63;;;;;;;;;;5048706;28;20013;-56
2021/01/24 14:05:17;;;;;;;0.20;0.20;;;;;;;;;;5046275;28;20041;-56
2021/01/24 14:07:43;;;;;;;3.20;0.73;;;;;;;;;;5048900;28;20033;-56
2021/01/24 14:10:10;;;;;;;6.05;0.68;;;;;;;;;;5050096;28;20498;-57
2021/01/24 14:12:37;;;;;;;2.15;0.82;;;;;;;;;;5051883;28;20497;-53
2021/01/24 14:15:03;;;;;;;1.83;0.60;;;;;;;;;;5052693;28;20024;-53
2021/01/24 14:17:29;;;;;;;5.90;1.77;;;;;;;;;;5049839;28;20017;-56
2021/01/24 14:19:56;;;;;;;0.30;0.30;;;;;;;;;;5052200;28;20707;-58
2021/01/24 14:22:22;;;;;;;6.15;1.70;;;;;;;;;;5047897;28;20111;-55
2021/01/24 14:24:48;;;;;;;0.20;0.20;;;;;;;;;;5053151;28;20048;-57
2021/01/24 14:27:14;;;;;;;1.58;0.40;;;;;;;;;;5052086;28;20033;-56
2021/01/24 14:29:40;;;;;;;0.50;0.50;;;;;;;;;;5052398;28;20071;-57
2021/01/24 14:32:06;;;;;;;4.47;0.40;;;;;;;;;;5053712;28;20122;-57
2021/01/24 14:34:33;;;;;;;3.92;2.95;;;;;;;;;;5050929;28;20133;-56
2021/01/24 14:36:59;;;;;;;2.38;0.82;;;;;;;;;;5052334;28;20446;-53
2021/01/24 14:39:25;;;;;;;1.13;0.40;;;;;;;;;;5052452;28;20039;-56
2021/01/24 14:41:51;;;;;;;0.85;0.70;;;;;;;;;;5051861;28;20075;-56
2021/01/24 14:44:17;;;;;;;8.35;1.35;;;;;;;;;;5052129;28;20067;-56
2021/01/24 14:46:43;;;;;;;0.73;0.40;;;;;;;;;;5051858;28;20041;-55
2021/01/24 14:49:09;;;;;;;1.13;0.73;;;;;;;;;;5051949;28;20024;-53
2021/01/24 14:51:36;;;;;;;0.22;0.22;;;;;;;;;;5052224;28;20494;-54
2021/01/24 14:54:02;;;;;;;2.78;0.80;;;;;;;;;;5051295;28;20075;-54
2021/01/24 14:56:28;;;;;;;0.45;0.30;;;;;;;;;;5051066;28;20486;-53
2021/01/24 14:58:54;;;;;;;0.15;0.15;;;;;;;;;;5049634;28;20029;-55
2021/01/24 15:01:20;;;;;;;2.60;0.52;;;;;;;;;;5051830;28;20049;-57
2021/01/24 15:03:46;;;;;;;4.45;0.90;;;;;;;;;;5052156;28;20509;-55
2021/01/24 15:06:12;;;;;;;3.63;1.83;;;;;;;;;;5051391;28;20115;-53
2021/01/24 15:08:39;;;;;;;0.57;0.40;;;;;;;;;;5053572;28;20021;-55
2021/01/24 15:11:05;;;;;;;23.95;0.95;;;;;;;;;;5051182;28;20027;-55
2021/01/24 15:13:31;;;;;;;0.20;0.20;;;;;;;;;;5051956;28;20028;-55
2021/01/24 15:15:57;;;;;;;0.63;0.55;;;;;;;;;;5067786;28;20037;-56
2021/01/24 15:18:23;;;;;;;15.95;3.03;;;;;;;;;;5050478;28;20082;-54
2021/01/24 15:20:51;;;;;;;4.30;0.95;;;;;;;;;;5050896;28;20052;-55
2021/01/24 15:23:17;;;;;;;0.95;0.60;;;;;;;;;;5050055;28;20021;-56
2021/01/24 15:25:43;;;;;;;2.55;0.45;;;;;;;;;;5050874;28;20036;-55
2021/01/24 15:28:09;;;;;;;0.35;0.28;;;;;;;;;;5051310;28;20504;-55
2021/01/24 15:30:35;;;;;;;0.30;0.30;;;;;;;;;;5051364;28;20033;-56
2021/01/24 15:33:01;;;;;;;0.43;0.30;;;;;;;;;;5050597;28;20017;-57
2021/01/24 15:35:28;;;;;;;0.85;0.30;;;;;;;;;;5049091;28;20040;-53
2021/01/24 15:37:54;;;;;;;4.20;0.77;;;;;;;;;;5051078;28;20053;-55
2021/01/24 15:40:20;;;;;;;0.17;0.17;;;;;;;;;;5051542;28;20074;-55
2021/01/24 15:42:46;;;;;;;5.35;0.52;;;;;;;;;;5052535;28;20025;-52
2021/01/24 15:45:13;;;;;;;3.92;0.73;;;;;;;;;;5051472;28;20086;-53
2021/01/24 15:47:39;;;;;;;3.40;0.82;;;;;;;;;;5050403;28;20131;-52
2021/01/24 15:50:06;;;;;;;4.85;0.40;;;;;;;;;;5050891;28;20021;-55
2021/01/24 15:52:32;;;;;;;5.28;1.17;;;;;;;;;;5051118;28;20564;-57
2021/01/24 15:54:58;;;;;;;3.33;1.10;;;;;;;;;;5052702;28;20037;-54
2021/01/24 15:57:24;;;;;;;1.15;0.38;;;;;;;;;;5048736;28;20505;-56
2021/01/24 15:59:50;;;;;;;3.53;1.40;;;;;;;;;;5050019;28;20047;-55
2021/01/24 16:02:16;;;;;;;1.75;0.40;;;;;;;;;;5045422;28;20052;-53
2021/01/24 16:04:42;;;;;;;0.45;0.45;;;;;;;;;;5046339;28;20028;-56
2021/01/24 16:07:08;;;;;;;5.18;0.45;;;;;;;;;;5044942;28;20028;-53
2021/01/24 16:09:35;;;;;;;0.20;0.20;;;;;;;;;;5047879;28;20036;-54
2021/01/24 16:12:02;;;;;;;5.65;1.85;;;;;;;;;;5046383;28;20063;-55
2021/01/24 16:14:29;;;;;;;0.80;0.40;;;;;;;;;;5047852;28;20045;-54
2021/01/24 16:16:55;;;;;;;0.20;0.20;;;;;;;;;;5047372;28;20021;-54
2021/01/24 16:19:21;;;;;;;0.25;0.25;;;;;;;;;;5048349;28;20029;-54
2021/01/24 16:21:47;;;;;;;0.40;0.40;;;;;;;;;;5047370;28;20076;-54
2021/01/24 16:24:13;;;;;;;1.05;0.43;;;;;;;;;;5046974;28;20029;-52
2021/01/24 16:26:39;;;;;;;0.32;0.20;;;;;;;;;;5046080;28;20028;-56
2021/01/24 16:29:05;;;;;;;0.20;0.20;;;;;;;;;;5045553;28;20036;-52
2021/01/24 16:31:31;;;;;;;3.60;1.55;;;;;;;;;;5047606;28;20040;-55
2021/01/24 16:33:58;;;;;;;3.15;0.88;;;;;;;;;;5047734;28;20418;-54
2021/01/24 16:36:24;;;;;;;7.03;1.38;;;;;;;;;;5046406;28;20029;-53
2021/01/24 16:38:50;;;;;;;8.30;1.20;;;;;;;;;;5046101;28;20036;-52
2021/01/24 16:41:16;;;;;;;5.25;0.73;;;;;;;;;;5045942;28;20832;-53
2021/01/24 16:43:42;;;;;;;3.58;0.35;;;;;;;;;;5046229;28;20399;-53
2021/01/24 16:46:08;;;;;;;0.50;0.50;;;;;;;;;;5049896;28;20029;-54
2021/01/24 16:48:34;;;;;;;0.35;0.30;;;;;;;;;;5045621;28;20029;-55
2021/01/24 16:51:01;;;;;;;0.30;0.30;;;;;;;;;;5047681;28;20028;-54
2021/01/24 16:53:27;;;;;;;0.20;0.20;;;;;;;;;;5044794;28;20537;-55
2021/01/24 16:55:53;;;;;;;1.77;0.30;;;;;;;;;;5045926;28;20029;-54
2021/01/24 16:58:19;;;;;;;0.55;0.55;;;;;;;;;;5046937;28;20067;-57
2021/01/24 17:00:48;;;;;;;1.05;0.82;;;;;;;;;;5047142;28;20149;-57
2021/01/24 17:03:14;;;;;;;0.20;0.20;;;;;;;;;;5047035;28;20033;-55
2021/01/24 17:05:40;;;;;;;0.57;0.40;;;;;;;;;;5046927;28;20029;-55
2021/01/24 17:08:06;;;;;;;5.22;0.57;;;;;;;;;;5045906;28;20624;-60
2021/01/24 17:10:32;;;;;;;0.20;0.20;;;;;;;;;;5049233;28;20175;-57
2021/01/24 17:12:59;;;;;;;2.40;0.50;;;;;;;;;;5048558;28;20456;-59
2021/01/24 17:15:25;;;;;;;3.50;0.73;;;;;;;;;;5050172;28;20036;-58
2021/01/24 17:17:52;;;;;;;5.15;0.47;;;;;;;;;;5047200;28;20028;-59
2021/01/24 17:20:19;;;;;;;3.20;0.90;;;;;;;;;;5051108;28;20049;-70
2021/01/24 17:22:45;;;;;;;4.50;1.02;;;;;;;;;;5063695;28;20052;-59
2021/01/24 17:25:12;;;;;;;0.32;0.30;;;;;;;;;;5045793;28;20032;-59
2021/01/24 17:27:38;;;;;;;30.63;1.70;;;;;;;;;;5048863;28;20027;-58
2021/01/24 17:30:08;;;;;;;3.28;0.60;;;;;;;;;;5047169;28;20040;-58
2021/01/24 17:32:34;;;;;;;0.20;0.20;;;;;;;;;;5047525;28;20390;-59
2021/01/24 17:35:00;;;;;;;0.30;0.30;;;;;;;;;;5047753;28;20032;-59
2021/01/24 17:37:27;;;;;;;4.57;0.68;;;;;;;;;;5047533;28;20033;-58
2021/01/24 17:39:53;;;;;;;2.97;1.27;;;;;;;;;;5046099;28;20131;-58
2021/01/24 17:42:19;;;;;;;1.98;0.30;;;;;;;;;;5046710;28;20494;-59
2021/01/24 17:44:46;;;;;;;0.55;0.50;;;;;;;;;;5045269;28;20398;-59
2021/01/24 17:47:13;;;;;;;7.43;1.27;;;;;;;;;;5044483;28;20091;-58
2021/01/24 17:49:42;;;;;;;0.40;0.40;;;;;;;;;;5044191;28;20082;-58
2021/01/24 17:52:08;;;;;;;2.92;1.20;;;;;;;;;;5050917;28;20131;-57
2021/01/24 17:54:34;;;;;;;6.05;1.52;;;;;;;;;;5048223;28;20025;-60
2021/01/24 17:57:00;;;;;;;5.43;1.75;;;;;;;;;;5047591;28;20538;-58
2021/01/24 17:59:26;;;;;;;5.05;0.47;;;;;;;;;;5046640;28;20021;-58
2021/01/24 18:01:53;;;;;;;1.40;1.30;;;;;;;;;;5047162;28;20068;-58
2021/01/24 18:04:19;;;;;;;0.30;0.30;;;;;;;;;;5048243;28;20025;-58
2021/01/24 18:06:45;;;;;;;0.40;0.40;;;;;;;;;;5047399;28;20033;-58
2021/01/24 18:09:11;;;;;;;1.77;1.27;;;;;;;;;;5046248;28;20697;-59
2021/01/24 18:11:37;;;;;;;0.60;0.20;;;;;;;;;;5046464;28;20600;-58
2021/01/24 18:14:03;;;;;;;0.20;0.20;;;;;;;;;;5047234;28;20029;-59
2021/01/24 18:16:29;;;;;;;1.85;1.55;;;;;;;;;;5047459;28;20024;-57
2021/01/24 18:18:56;;;;;;;2.78;0.50;;;;;;;;;;5050662;28;20040;-61
2021/01/24 18:21:22;;;;;;;7.30;3.47;;;;;;;;;;5048656;28;20045;-58
2021/01/24 18:23:48;;;;;;;9.43;1.50;;;;;;;;;;5046901;28;20032;-58
2021/01/24 18:26:14;;;;;;;0.68;0.68;;;;;;;;;;5048852;28;20068;-59
2021/01/24 18:28:40;;;;;;;3.08;1.60;;;;;;;;;;5047816;28;20033;-59
2021/01/24 18:31:07;;;;;;;5.25;2.28;;;;;;;;;;5049962;28;20057;-59
2021/01/24 18:33:33;;;;;;;0.40;0.40;;;;;;;;;;5048263;28;20025;-58
2021/01/24 18:35:59;;;;;;;5.78;1.02;;;;;;;;;;5048679;28;20528;-59
2021/01/24 18:38:25;;;;;;;5.25;2.00;;;;;;;;;;5047134;28;20029;-58
2021/01/24 18:40:52;;;;;;;1.95;0.73;;;;;;;;;;5048981;28;20148;-59
2021/01/24 18:43:20;;;;;;;0.32;0.30;;;;;;;;;;5049725;28;20078;-59
2021/01/24 18:45:47;;;;;;;0.55;0.55;;;;;;;;;;5064765;28;20052;-59
2021/01/24 18:48:13;;;;;;;0.93;0.47;;;;;;;;;;5047241;28;20068;-59
2021/01/24 18:50:39;;;;;;;2.42;0.77;;;;;;;;;;5047028;28;20033;-58
2021/01/24 18:53:05;;;;;;;3.15;0.88;;;;;;;;;;5047022;28;20119;-59
2021/01/24 18:55:31;;;;;;;0.30;0.30;;;;;;;;;;5048727;28;20031;-59
2021/01/24 18:57:57;;;;;;;0.38;0.30;;;;;;;;;;5052133;28;20021;-57
2021/01/24 19:00:23;;;;;;;1.27;0.50;;;;;;;;;;5050947;28;20128;-58
2021/01/24 19:02:50;;;;;;;1.45;0.95;;;;;;;;;;5049013;28;20478;-58
2021/01/24 19:05:16;;;;;;;0.22;0.22;;;;;;;;;;5044858;28;20025;-58
2021/01/24 19:07:42;;;;;;;7.78;1.58;;;;;;;;;;5048385;28;20032;-57
2021/01/24 19:10:10;;;;;;;4.35;0.70;;;;;;;;;;5051440;28;20128;-57
2021/01/24 19:12:36;;;;;;;9.00;2.30;;;;;;;;;;5051281;28;20032;-58
2021/01/24 19:15:03;;;;;;;9.07;1.35;;;;;;;;;;5051529;28;20032;-56
2021/01/24 19:17:29;;;;;;;4.13;1.40;;;;;;;;;;5049937;28;20052;-58
2021/01/24 19:19:55;;;;;;;0.77;0.35;;;;;;;;;;5050219;28;20040;-58
2021/01/24 19:22:21;;;;;;;0.65;0.25;;;;;;;;;;5051459;28;20100;-58
2021/01/24 19:24:47;;;;;;;0.98;0.60;;;;;;;;;;5050626;28;20024;-57
2021/01/24 19:27:14;;;;;;;2.05;1.85;;;;;;;;;;5050733;28;20076;-59
2021/01/24 19:29:40;;;;;;;0.98;0.65;;;;;;;;;;5049948;28;20626;-59
2021/01/24 19:32:06;;;;;;;6.85;0.70;;;;;;;;;;5051005;28;20045;-59
2021/01/24 19:34:34;;;;;;;8.65;4.25;;;;;;;;;;5049780;28;20021;-59
2021/01/24 19:37:00;;;;;;;0.20;0.20;;;;;;;;;;5051702;28;20032;-60
2021/01/24 19:39:26;;;;;;;5.15;1.50;;;;;;;;;;5049347;28;20021;-59
2021/01/24 19:41:57;;;;;;;1.50;1.40;;;;;;;;;;5049661;28;20112;-59
2021/01/24 19:44:24;;;;;;;22.38;5.43;;;;;;;;;;5049652;28;20164;-59
2021/01/24 19:46:50;;;;;;;3.75;1.25;;;;;;;;;;5051143;28;20037;-60
2021/01/24 19:49:16;;;;;;;3.42;0.77;;;;;;;;;;5048614;28;20036;-59
2021/01/24 19:51:42;;;;;;;1.10;0.82;;;;;;;;;;5049003;28;20032;-57
2021/01/24 19:54:08;;;;;;;0.40;0.40;;;;;;;;;;5048029;28;20037;-58
2021/01/24 19:56:34;;;;;;;2.38;0.45;;;;;;;;;;5045281;28;20100;-58
2021/01/24 19:59:01;;;;;;;0.60;0.43;;;;;;;;;;5048261;28;20486;-59
2021/01/24 20:01:27;;;;;;;1.77;0.40;;;;;;;;;;5047929;28;20029;-59
2021/01/24 20:03:53;;;;;;;0.77;0.25;;;;;;;;;;5048841;28;20053;-57
2021/01/24 20:06:19;;;;;;;0.20;0.20;;;;;;;;;;5047308;28;20581;-59
2021/01/24 20:08:46;;;;;;;3.28;1.45;;;;;;;;;;5046870;28;20502;-59
2021/01/24 20:11:12;;;;;;;5.10;1.02;;;;;;;;;;5046546;28;20112;-60
2021/01/24 20:13:38;;;;;;;6.55;0.50;;;;;;;;;;5047772;28;20014;-59
2021/01/24 20:16:05;;;;;;;0.40;0.40;;;;;;;;;;5049940;28;20040;-59
2021/01/24 20:18:31;;;;;;;2.38;0.40;;;;;;;;;;5046432;28;20036;-58
2021/01/24 20:20:57;;;;;;;0.70;0.25;;;;;;;;;;5046422;28;20102;-58
2021/01/24 20:23:23;;;;;;;0.47;0.47;;;;;;;;;;5046486;28;20456;-59
2021/01/24 20:25:50;;;;;;;0.60;0.25;;;;;;;;;;5047028;28;20040;-59
2021/01/24 20:28:16;;;;;;;0.90;0.40;;;;;;;;;;5049656;28;20783;-59
2021/01/24 20:30:42;;;;;;;14.23;2.58;;;;;;;;;;5047263;28;20120;-58
2021/01/24 20:33:08;;;;;;;6.18;0.77;;;;;;;;;;5046604;28;20025;-59
2021/01/24 20:35:34;;;;;;;0.43;0.43;;;;;;;;;;5046399;28;20058;-59
2021/01/24 20:38:00;;;;;;;0.30;0.30;;;;;;;;;;5046871;28;20032;-60
2021/01/24 20:40:27;;;;;;;6.65;1.00;;;;;;;;;;5046211;28;20045;-59
2021/01/24 20:42:53;;;;;;;5.57;1.85;;;;;;;;;;5047435;28;20044;-58